createdAt,value
2023-02-14T00:00:10.487Z,6.23
2023-02-14T00:02:39.049Z,5.73
2023-02-14T00:05:08.073Z,6.00
2023-02-14T00:07:37.898Z,6.57
2023-02-14T00:10:07.809Z,6.37
2023-02-14T00:12:36.249Z,5.97
2023-02-14T00:15:22.368Z,7.37
2023-02-14T00:17:51.062Z,5.87
2023-02-14T00:20:19.890Z,5.30
2023-02-14T00:22:50.021Z,6.00
2023-02-14T00:25:19.065Z,5.20
2023-02-14T00:27:47.647Z,5.47
2023-02-14T00:30:16.326Z,5.67
2023-02-14T00:32:44.863Z,6.37
2023-02-14T00:35:13.659Z,6.07
2023-02-14T00:37:42.810Z,5.60
2023-02-14T00:40:13.251Z,5.77
2023-02-14T00:42:41.711Z,5.60
2023-02-14T00:45:10.824Z,5.77
2023-02-14T00:47:39.386Z,5.90
2023-02-14T00:50:08.671Z,5.30
2023-02-14T00:52:37.212Z,5.30
2023-02-14T00:55:06.166Z,6.13
2023-02-14T00:57:36.072Z,6.33
2023-02-14T01:00:07.551Z,5.90
2023-02-14T01:02:36.181Z,5.27
2023-02-14T01:05:04.862Z,5.47
2023-02-14T01:07:33.319Z,6.03
2023-02-14T01:10:02.020Z,5.90
2023-02-14T01:12:32.215Z,6.10
2023-02-14T01:15:03.991Z,6.40
2023-02-14T01:17:32.461Z,5.67
2023-02-14T01:20:00.940Z,6.13
2023-02-14T01:22:29.500Z,5.20
2023-02-14T01:24:58.005Z,5.07
2023-02-14T01:27:26.453Z,6.10
2023-02-14T01:29:55.685Z,5.90
2023-02-14T01:32:25.918Z,5.43
2023-02-14T01:34:54.801Z,5.90
2023-02-14T01:37:23.380Z,5.40
2023-02-14T01:39:52.330Z,5.40
2023-02-14T01:42:20.777Z,5.87
2023-02-14T01:44:58.796Z,6.13
2023-02-14T01:47:31.962Z,5.57
2023-02-14T01:50:05.668Z,5.60
2023-02-14T01:52:38.401Z,5.30
2023-02-14T01:55:14.083Z,5.27
2023-02-14T01:57:49.527Z,5.90
2023-02-14T02:00:36.589Z,5.57
2023-02-14T02:03:08.238Z,4.93
2023-02-14T02:05:40.062Z,4.73
2023-02-14T02:08:08.948Z,5.20
2023-02-14T02:10:37.415Z,5.67
2023-02-14T02:13:08.734Z,5.37
2023-02-14T02:15:43.721Z,5.17
2023-02-14T02:18:20.997Z,5.07
2023-02-14T02:21:13.750Z,5.13
2023-02-14T02:24:13.054Z,5.77
2023-02-14T02:27:15.378Z,5.50
2023-02-14T02:30:22.942Z,5.50
2023-02-14T02:33:21.598Z,5.60
2023-02-14T02:36:13.833Z,5.20
2023-02-14T02:38:55.728Z,5.57
2023-02-14T02:41:40.705Z,5.13
2023-02-14T02:44:17.436Z,5.37
2023-02-14T02:46:53.515Z,4.90
2023-02-14T02:49:54.951Z,5.10
2023-02-14T02:52:51.344Z,5.20
2023-02-14T02:55:25.920Z,5.30
2023-02-14T02:57:55.300Z,4.73
2023-02-14T03:00:25.519Z,5.47
2023-02-14T03:03:15.194Z,5.33
2023-02-14T03:05:44.951Z,5.30
2023-02-14T03:08:15.034Z,5.63
2023-02-14T03:10:44.389Z,6.33
2023-02-14T03:13:26.727Z,5.20
2023-02-14T03:16:27.340Z,5.40
2023-02-14T03:19:13.181Z,5.20
2023-02-14T03:21:48.885Z,4.80
2023-02-14T03:24:27.046Z,5.87
2023-02-14T03:27:04.393Z,5.10
2023-02-14T03:29:44.822Z,5.60
2023-02-14T03:32:18.063Z,5.33
2023-02-14T03:34:53.992Z,5.90
2023-02-14T03:37:27.581Z,5.97
2023-02-14T03:40:06.012Z,5.67
2023-02-14T03:42:39.131Z,6.00
2023-02-14T03:45:12.092Z,5.50
2023-02-14T03:47:43.764Z,6.27
2023-02-14T03:50:16.828Z,5.80
2023-02-14T03:52:47.711Z,5.90
2023-02-14T03:55:25.060Z,5.53
2023-02-14T03:57:59.740Z,5.90
2023-02-14T04:00:30.798Z,5.70
2023-02-14T04:03:06.218Z,5.40
2023-02-14T04:05:35.101Z,6.20
2023-02-14T04:08:03.793Z,6.10
2023-02-14T04:10:33.911Z,6.40
2023-02-14T04:13:02.540Z,6.10
2023-02-14T04:15:30.971Z,6.20
2023-02-14T04:18:16.897Z,5.43
2023-02-14T04:20:45.283Z,6.27
2023-02-14T04:23:13.894Z,5.73
2023-02-14T04:25:45.722Z,6.97
2023-02-14T04:28:14.222Z,5.93
2023-02-14T04:30:42.641Z,7.10
2023-02-14T04:33:11.002Z,6.70
2023-02-14T04:35:39.624Z,6.73
2023-02-14T04:38:08.299Z,7.03
2023-02-14T04:40:36.883Z,6.80
2023-02-14T04:43:07.636Z,6.93
2023-02-14T04:45:36.290Z,7.47
2023-02-14T04:48:04.926Z,7.20
2023-02-14T04:50:33.652Z,7.70
2023-02-14T04:53:02.164Z,6.83
2023-02-14T04:55:30.749Z,7.93
2023-02-14T04:57:59.131Z,8.40
2023-02-14T05:00:29.237Z,8.20
2023-02-14T05:02:57.778Z,7.80
2023-02-14T05:05:26.312Z,29.97
2023-02-14T05:07:54.765Z,48.00
2023-02-14T05:10:23.471Z,46.57
2023-02-14T05:12:51.841Z,29.20
2023-02-14T05:15:20.664Z,18.77
2023-02-14T05:17:50.578Z,12.10
2023-02-14T05:20:19.252Z,9.47
2023-02-14T05:22:47.671Z,8.87
2023-02-14T05:25:16.331Z,9.63
2023-02-14T05:27:44.829Z,9.23
2023-02-14T05:30:15.901Z,8.80
2023-02-14T05:32:44.519Z,9.20
2023-02-14T05:35:17.823Z,9.17
2023-02-14T05:37:49.148Z,10.77
2023-02-14T05:40:17.819Z,9.00
2023-02-14T05:42:50.019Z,9.17
2023-02-14T05:45:18.665Z,10.70
2023-02-14T05:47:48.805Z,9.40
2023-02-14T05:50:20.118Z,10.20
2023-02-14T05:52:53.463Z,55.67
2023-02-14T05:55:23.607Z,40.03
2023-02-14T05:57:52.879Z,21.30
2023-02-14T06:00:23.883Z,16.13
2023-02-14T06:02:55.503Z,12.90
2023-02-14T06:05:25.603Z,10.90
2023-02-14T06:07:54.444Z,9.30
2023-02-14T06:10:24.823Z,10.80
2023-02-14T06:12:55.376Z,9.97
2023-02-14T06:15:26.627Z,9.73
2023-02-14T06:17:56.402Z,10.63
2023-02-14T06:20:27.603Z,10.57
2023-02-14T06:22:56.250Z,11.23
2023-02-14T06:25:26.162Z,11.17
2023-02-14T06:27:57.357Z,10.70
2023-02-14T06:30:26.736Z,9.97
2023-02-14T06:32:55.637Z,51.53
2023-02-14T06:35:25.638Z,44.57
2023-02-14T06:37:54.260Z,18.87
2023-02-14T06:40:22.820Z,16.00
2023-02-14T06:42:51.293Z,12.40
2023-02-14T06:45:20.155Z,12.77
2023-02-14T06:47:48.683Z,12.53
2023-02-14T06:50:17.222Z,12.97
2023-02-14T06:52:47.456Z,12.83
2023-02-14T06:55:15.990Z,12.43
2023-02-14T06:57:44.593Z,37.00
2023-02-14T07:00:14.888Z,34.33
2023-02-14T07:02:43.746Z,16.70
2023-02-14T07:05:12.771Z,14.80
2023-02-14T07:07:41.211Z,13.27
2023-02-14T07:10:12.439Z,13.70
2023-02-14T07:12:41.212Z,13.07
2023-02-14T07:15:11.217Z,13.97
2023-02-14T07:17:39.966Z,9.63
2023-02-14T07:20:10.347Z,11.77
2023-02-14T07:22:39.529Z,12.57
2023-02-14T07:25:10.317Z,12.80
2023-02-14T07:27:39.119Z,12.20
2023-02-14T07:30:09.763Z,13.47
2023-02-14T07:32:39.027Z,13.03
2023-02-14T07:35:08.216Z,13.60
2023-02-14T07:37:37.141Z,13.10
2023-02-14T07:40:14.064Z,12.20
2023-02-14T07:42:44.942Z,12.53
2023-02-14T07:45:21.640Z,11.97
2023-02-14T07:47:52.065Z,12.70
2023-02-14T07:50:21.267Z,13.17
2023-02-14T07:52:49.840Z,12.30
2023-02-14T07:55:19.381Z,11.23
2023-02-14T07:57:50.819Z,13.20
2023-02-14T08:00:20.437Z,13.73
2023-02-14T08:02:51.507Z,12.73
2023-02-14T08:05:20.356Z,13.90
2023-02-14T08:07:49.101Z,13.97
2023-02-14T08:10:18.350Z,13.90
2023-02-14T08:13:02.293Z,13.97
2023-02-14T08:15:51.242Z,14.53
2023-02-14T08:18:20.794Z,14.57
2023-02-14T08:20:50.354Z,15.00
2023-02-14T08:23:20.607Z,14.43
2023-02-14T08:25:50.825Z,14.07
2023-02-14T08:28:21.911Z,16.03
2023-02-14T08:30:52.729Z,16.10
2023-02-14T08:33:22.112Z,44.33
2023-02-14T08:35:52.084Z,31.93
2023-02-14T08:38:20.847Z,20.77
2023-02-14T08:40:49.758Z,17.33
2023-02-14T08:43:18.268Z,18.07
2023-02-14T08:45:48.621Z,17.20
2023-02-14T08:48:18.652Z,15.90
2023-02-14T08:50:47.198Z,17.47
2023-02-14T08:53:16.279Z,15.40
2023-02-14T08:55:45.001Z,15.63
2023-02-14T08:58:14.394Z,15.27
2023-02-14T09:00:43.049Z,15.50
2023-02-14T09:03:11.843Z,14.07
2023-02-14T09:05:41.821Z,14.80
2023-02-14T09:08:10.581Z,14.90
2023-02-14T09:10:39.109Z,14.87
2023-02-14T09:13:07.820Z,14.20
2023-02-14T09:15:36.507Z,14.30
2023-02-14T09:18:05.375Z,14.67
2023-02-14T09:20:34.009Z,14.60
2023-02-14T09:23:04.173Z,14.27
2023-02-14T09:25:33.336Z,32.23
2023-02-14T09:28:02.027Z,34.23
2023-02-14T09:30:30.773Z,25.23
2023-02-14T09:33:00.373Z,20.50
2023-02-14T09:35:29.019Z,17.17
2023-02-14T09:37:56.630Z,15.10
2023-02-14T09:40:27.028Z,14.10
2023-02-14T09:43:09.905Z,13.27
2023-02-14T09:45:39.734Z,14.83
2023-02-14T09:48:14.350Z,13.23
2023-02-14T09:50:48.577Z,12.97
2023-02-14T09:53:26.257Z,13.83
2023-02-14T09:56:05.357Z,13.60
2023-02-14T09:58:37.727Z,14.40
2023-02-14T10:01:16.750Z,14.70
2023-02-14T10:03:58.483Z,14.53
2023-02-14T10:06:44.793Z,13.33
2023-02-14T10:09:23.943Z,14.10
2023-02-14T10:11:55.827Z,13.73
2023-02-14T10:14:28.054Z,13.00
2023-02-14T10:17:00.888Z,13.90
2023-02-14T10:19:35.680Z,12.23
2023-02-14T10:22:08.582Z,13.40
2023-02-14T10:24:41.536Z,13.03
2023-02-14T10:27:28.385Z,12.60
2023-02-14T10:29:57.212Z,18.93
2023-02-14T10:32:33.376Z,52.50
2023-02-14T10:35:07.098Z,35.30
2023-02-14T10:37:49.480Z,23.97
2023-02-14T10:40:46.622Z,20.77
2023-02-14T10:43:26.559Z,19.00
2023-02-14T10:46:03.697Z,16.33
2023-02-14T10:48:41.219Z,15.50
2023-02-14T10:51:18.073Z,13.40
2023-02-14T10:54:00.384Z,13.73
2023-02-14T10:56:35.916Z,13.03
2023-02-14T10:59:19.753Z,13.33
2023-02-14T11:01:49.746Z,13.20
2023-02-14T11:04:19.617Z,13.13
2023-02-14T11:06:49.344Z,13.83
2023-02-14T11:09:18.280Z,12.60
2023-02-14T11:11:51.654Z,12.37
2023-02-14T11:14:24.407Z,12.77
2023-02-14T11:16:54.443Z,11.90
2023-02-14T11:19:28.064Z,12.90
2023-02-14T11:21:58.661Z,12.80
2023-02-14T11:24:30.124Z,12.80
2023-02-14T11:27:01.736Z,11.73
2023-02-14T11:29:36.963Z,12.57
2023-02-14T11:32:10.458Z,12.57
2023-02-14T11:34:41.110Z,11.00
2023-02-14T11:37:26.965Z,12.40
2023-02-14T11:39:58.032Z,23.00
2023-02-14T11:42:41.719Z,27.13
2023-02-14T11:45:32.529Z,22.10
2023-02-14T11:48:37.331Z,16.20
2023-02-14T11:51:10.132Z,14.07
2023-02-14T11:53:46.776Z,13.70
2023-02-14T11:56:17.944Z,12.70
2023-02-14T11:58:51.187Z,13.10
2023-02-14T12:01:27.528Z,10.30
2023-02-14T12:03:58.687Z,10.53
2023-02-14T12:06:30.456Z,10.97
2023-02-14T12:09:13.221Z,10.13
2023-02-14T12:11:41.706Z,9.87
2023-02-14T12:14:22.829Z,10.07
2023-02-14T12:17:01.437Z,10.20
2023-02-14T12:19:38.466Z,9.83
2023-02-14T12:22:08.294Z,10.90
2023-02-14T12:24:40.127Z,10.17
2023-02-14T12:27:21.427Z,10.67
2023-02-14T12:29:55.613Z,10.07
2023-02-14T12:32:27.509Z,10.33
2023-02-14T12:35:05.056Z,10.30
2023-02-14T12:37:45.503Z,9.67
2023-02-14T12:40:27.999Z,9.10
2023-02-14T12:43:10.727Z,9.70
2023-02-14T12:46:00.740Z,8.83
2023-02-14T12:48:43.379Z,9.20
2023-02-14T12:51:17.233Z,9.63
2023-02-14T12:54:17.533Z,9.87
2023-02-14T12:56:56.479Z,7.73
2023-02-14T12:59:33.418Z,8.20
2023-02-14T13:02:33.654Z,7.90
2023-02-14T13:05:13.174Z,7.67
2023-02-14T13:07:56.806Z,15.50
2023-02-14T13:10:36.915Z,15.17
2023-02-14T13:13:12.162Z,12.70
2023-02-14T13:15:48.690Z,12.97
2023-02-14T13:18:25.143Z,11.40
2023-02-14T13:20:58.242Z,11.80
2023-02-14T13:23:30.558Z,10.40
2023-02-14T13:26:04.880Z,10.83
2023-02-14T13:28:34.090Z,9.73
2023-02-14T13:31:03.692Z,9.30
2023-02-14T13:33:36.625Z,8.63
2023-02-14T13:36:10.115Z,9.00
2023-02-14T13:38:44.021Z,9.40
2023-02-14T13:41:14.004Z,8.20
2023-02-14T13:43:50.951Z,7.20
2023-02-14T13:46:23.324Z,7.50
2023-02-14T13:49:00.511Z,8.00
2023-02-14T13:51:50.898Z,6.63
2023-02-14T13:54:32.736Z,7.87
2023-02-14T13:57:03.159Z,8.10
2023-02-14T13:59:33.789Z,7.13
2023-02-14T14:02:41.271Z,8.50
2023-02-14T14:05:48.795Z,7.73
2023-02-14T14:08:43.602Z,7.77
2023-02-14T14:11:34.609Z,7.77
2023-02-14T14:14:05.301Z,7.20
2023-02-14T14:16:36.756Z,6.97
2023-02-14T14:19:11.653Z,6.90
2023-02-14T14:21:43.622Z,7.63
2023-02-14T14:24:23.680Z,7.13
2023-02-14T14:26:59.235Z,6.90
2023-02-14T14:29:31.773Z,7.43
2023-02-14T14:32:01.234Z,8.10
2023-02-14T14:34:30.165Z,8.07
2023-02-14T14:37:07.196Z,7.17
2023-02-14T14:39:39.980Z,7.20
2023-02-14T14:42:10.523Z,7.40
2023-02-14T14:44:48.437Z,8.90
2023-02-14T14:47:21.018Z,7.20
2023-02-14T14:49:49.884Z,7.07
2023-02-14T14:52:36.347Z,6.40
2023-02-14T14:55:09.309Z,8.40
2023-02-14T14:57:40.080Z,12.67
2023-02-14T15:00:28.675Z,12.27
2023-02-14T15:02:59.642Z,10.00
2023-02-14T15:05:30.726Z,9.43
2023-02-14T15:07:59.219Z,9.50
2023-02-14T15:10:31.579Z,8.43
2023-02-14T15:13:18.334Z,8.37
2023-02-14T15:15:51.115Z,7.17
2023-02-14T15:18:22.181Z,8.80
2023-02-14T15:20:51.472Z,7.70
2023-02-14T15:23:24.051Z,8.30
2023-02-14T15:25:54.054Z,8.10
2023-02-14T15:28:30.355Z,7.67
2023-02-14T15:31:01.501Z,7.97
2023-02-14T15:33:31.702Z,7.73
2023-02-14T15:36:04.232Z,7.50
2023-02-14T15:38:36.162Z,7.03
2023-02-14T15:41:06.351Z,7.80
2023-02-14T15:43:37.872Z,6.50
2023-02-14T15:46:18.832Z,7.33
2023-02-14T15:48:47.873Z,6.10
2023-02-14T15:51:20.987Z,6.70
2023-02-14T15:53:53.758Z,8.20
2023-02-14T15:56:27.257Z,7.50
2023-02-14T15:59:01.356Z,7.23
2023-02-14T16:01:30.884Z,8.10
2023-02-14T16:04:02.784Z,8.40
2023-02-14T16:06:34.210Z,9.90
2023-02-14T16:09:03.851Z,9.27
2023-02-14T16:11:36.145Z,11.23
2023-02-14T16:14:35.047Z,10.63
2023-02-14T16:17:05.552Z,9.17
2023-02-14T16:19:41.151Z,9.33
2023-02-14T16:22:11.398Z,11.50
2023-02-14T16:24:42.066Z,11.80
2023-02-14T16:27:13.339Z,10.80
2023-02-14T16:29:41.767Z,15.03
2023-02-14T16:32:16.506Z,15.60
2023-02-14T16:34:47.388Z,14.47
2023-02-14T16:37:22.383Z,11.60
2023-02-14T16:39:52.318Z,12.33
2023-02-14T16:42:22.378Z,12.13
2023-02-14T16:44:51.356Z,11.47
2023-02-14T16:47:21.828Z,11.10
2023-02-14T16:49:50.789Z,9.43
2023-02-14T16:52:24.107Z,11.33
2023-02-14T16:54:52.673Z,10.77
2023-02-14T16:57:28.022Z,10.93
2023-02-14T16:59:57.870Z,11.30
2023-02-14T17:02:28.402Z,11.97
2023-02-14T17:04:57.188Z,12.70
2023-02-14T17:07:26.082Z,12.90
2023-02-14T17:10:02.407Z,11.37
2023-02-14T17:12:38.411Z,11.70
2023-02-14T17:15:12.215Z,11.87
2023-02-14T17:17:40.933Z,10.30
2023-02-14T17:20:10.771Z,11.53
2023-02-14T17:22:39.490Z,12.30
2023-02-14T17:25:08.374Z,12.27
2023-02-14T17:27:38.933Z,11.20
2023-02-14T17:30:10.171Z,11.97
2023-02-14T17:32:44.043Z,13.40
2023-02-14T17:35:14.517Z,12.30
2023-02-14T17:37:43.597Z,12.40
2023-02-14T17:40:13.103Z,12.77
2023-02-14T17:42:43.268Z,12.90
2023-02-14T17:45:12.862Z,12.87
2023-02-14T17:47:43.219Z,15.40
2023-02-14T17:50:13.110Z,15.80
2023-02-14T17:52:41.727Z,15.50
2023-02-14T17:55:10.548Z,14.23
2023-02-14T17:57:41.001Z,16.37
2023-02-14T18:00:14.296Z,16.60
2023-02-14T18:02:42.922Z,15.03
2023-02-14T18:05:12.313Z,14.60
2023-02-14T18:07:40.723Z,15.00
2023-02-14T18:10:09.890Z,17.50
2023-02-14T18:12:38.283Z,15.33
2023-02-14T18:15:07.036Z,17.60
2023-02-14T18:17:36.805Z,17.50
2023-02-14T18:20:06.382Z,17.90
2023-02-14T18:22:35.048Z,15.67
2023-02-14T18:25:03.375Z,16.07
2023-02-14T18:27:32.618Z,15.97
2023-02-14T18:30:01.041Z,15.50
2023-02-14T18:32:29.503Z,16.03
2023-02-14T18:34:59.237Z,15.23
2023-02-14T18:37:27.585Z,15.97
2023-02-14T18:39:56.047Z,15.97
2023-02-14T18:42:24.447Z,15.43
2023-02-14T18:44:52.721Z,14.47
2023-02-14T18:47:21.351Z,16.10
2023-02-14T18:49:49.644Z,14.93
2023-02-14T18:52:19.414Z,15.27
2023-02-14T18:54:47.755Z,14.50
2023-02-14T18:57:16.467Z,15.40
2023-02-14T18:59:45.157Z,13.80
2023-02-14T19:02:17.052Z,15.90
2023-02-14T19:04:45.480Z,15.53
2023-02-14T19:07:14.204Z,13.97
2023-02-14T19:09:51.673Z,16.43
2023-02-14T19:12:20.209Z,17.30
2023-02-14T19:14:48.671Z,15.63
2023-02-14T19:17:18.019Z,16.53
2023-02-14T19:19:46.482Z,17.57
2023-02-14T19:22:15.076Z,19.53
2023-02-14T19:24:45.116Z,18.97
2023-02-14T19:27:13.638Z,17.97
2023-02-14T19:29:42.208Z,17.67
2023-02-14T19:32:10.687Z,14.37
2023-02-14T19:34:39.932Z,14.83
2023-02-14T19:37:08.341Z,14.10
2023-02-14T19:39:36.746Z,15.47
2023-02-14T19:42:06.823Z,16.10
2023-02-14T19:44:35.325Z,15.60
2023-02-14T19:47:15.701Z,14.27
2023-02-14T19:49:53.215Z,13.60
2023-02-14T19:52:26.676Z,13.50
2023-02-14T19:54:57.426Z,12.07
2023-02-14T19:57:27.446Z,13.47
2023-02-14T19:59:55.852Z,11.67
2023-02-14T20:02:24.774Z,10.87
2023-02-14T20:04:53.577Z,11.03
2023-02-14T20:07:22.861Z,12.93
2023-02-14T20:09:51.335Z,10.97
2023-02-14T20:12:19.833Z,12.43
2023-02-14T20:14:52.171Z,11.90
2023-02-14T20:17:20.800Z,11.50
2023-02-14T20:19:49.608Z,11.30
2023-02-14T20:22:18.097Z,12.23
2023-02-14T20:24:46.719Z,12.33
2023-02-14T20:27:15.167Z,12.07
2023-02-14T20:29:47.103Z,11.10
2023-02-14T20:32:18.635Z,12.33
2023-02-14T20:34:48.096Z,12.73
2023-02-14T20:37:18.551Z,13.37
2023-02-14T20:39:47.422Z,11.50
2023-02-14T20:42:18.196Z,12.20
2023-02-14T20:44:47.072Z,12.20
2023-02-14T20:47:20.471Z,12.03
2023-02-14T20:49:48.856Z,12.40
2023-02-14T20:52:19.212Z,12.97
2023-02-14T20:54:47.978Z,12.70
2023-02-14T20:57:18.788Z,12.77
2023-02-14T20:59:47.177Z,14.67
2023-02-14T21:02:25.931Z,12.57
2023-02-14T21:04:54.261Z,13.83
2023-02-14T21:07:22.802Z,13.33
2023-02-14T21:09:54.442Z,14.90
2023-02-14T21:12:25.619Z,14.73
2023-02-14T21:14:53.948Z,14.53
2023-02-14T21:17:28.043Z,14.57
2023-02-14T21:19:59.123Z,14.40
2023-02-14T21:22:27.517Z,13.13
2023-02-14T21:24:56.323Z,14.27
2023-02-14T21:27:25.032Z,15.43
2023-02-14T21:29:53.416Z,13.63
2023-02-14T21:32:26.090Z,13.83
2023-02-14T21:34:54.526Z,13.60
2023-02-14T21:37:23.342Z,13.60
2023-02-14T21:39:51.755Z,13.17
2023-02-14T21:42:21.253Z,14.40
2023-02-14T21:45:07.206Z,13.80
2023-02-14T21:47:39.825Z,14.50
2023-02-14T21:50:26.183Z,13.00
2023-02-14T21:52:54.597Z,14.37
2023-02-14T21:55:23.156Z,13.70
2023-02-14T21:57:51.593Z,15.20
2023-02-14T22:00:22.941Z,14.20
2023-02-14T22:02:52.968Z,14.67
2023-02-14T22:05:21.382Z,13.20
2023-02-14T22:07:50.817Z,17.03
2023-02-14T22:10:19.269Z,14.53
2023-02-14T22:12:47.633Z,15.13
2023-02-14T22:15:16.020Z,15.40
2023-02-14T22:17:45.104Z,16.20
2023-02-14T22:20:14.923Z,15.37
2023-02-14T22:22:43.478Z,16.47
2023-02-14T22:25:11.988Z,14.57
2023-02-14T22:27:40.941Z,15.90
2023-02-14T22:30:10.254Z,14.60
2023-02-14T22:32:38.595Z,14.53
2023-02-14T22:35:07.969Z,15.80
2023-02-14T22:37:37.747Z,15.57
2023-02-14T22:40:07.373Z,15.20
2023-02-14T22:42:36.278Z,13.93
2023-02-14T22:45:05.340Z,15.50
2023-02-14T22:47:34.157Z,14.80
2023-02-14T22:50:03.044Z,15.30
2023-02-14T22:52:31.472Z,14.57
2023-02-14T22:55:01.277Z,15.83
2023-02-14T22:57:29.797Z,16.40
2023-02-14T22:59:58.133Z,15.60
2023-02-14T23:02:26.532Z,14.53
2023-02-14T23:04:57.149Z,16.60
2023-02-14T23:07:25.547Z,16.40
2023-02-14T23:09:54.104Z,14.93
2023-02-14T23:12:41.636Z,16.10
2023-02-14T23:15:28.333Z,14.30
2023-02-14T23:18:15.027Z,16.07
2023-02-14T23:21:00.980Z,14.63
2023-02-14T23:23:32.239Z,15.43
2023-02-14T23:26:01.690Z,16.67
2023-02-14T23:28:31.701Z,15.87
2023-02-14T23:31:02.219Z,16.90
2023-02-14T23:33:30.696Z,16.93
2023-02-14T23:36:02.919Z,16.63
2023-02-14T23:38:31.362Z,18.40
2023-02-14T23:41:17.490Z,18.30
2023-02-14T23:43:50.011Z,16.10
2023-02-14T23:46:18.314Z,17.53
2023-02-14T23:48:47.131Z,17.63
2023-02-14T23:51:15.677Z,17.30
2023-02-14T23:53:44.084Z,17.70
2023-02-14T23:56:12.487Z,17.27
2023-02-14T23:58:43.269Z,16.90
